PWSweather.com
Personal Weather Stations
Station Observations
ISARDEGN48
BittiIT 08021

BittiIT 08021

Lat: 40.4805, Lon: 9.3887

Elevation: 1804

Station Type: La Crosse WS2355

http://meteobitti.altervista.org

High Low Average
Temperature 57.9°F14.4°F 48.9°F9.4°F 53.1°F11.7°F
Dew Point 49.1°F9.5°F 41.5°F5.3°F 46.8°F8.2°F
Winds 43.8 mph -70.5 mph - Calm Calm 12.8 mph 20.6 mph
Wind Gusts 43.8 mph70.5 mph 5.6 mph9.0 mph 25.5 mph41.0 mph
Humidity 89% 66% 79%
Pressure 29.83 in1010.20 in 29.37 in994.60 in -
Precipitation 1.20 in30.50 in - -
Hour Temp Dew Point Humidity Winds Wind Gusts Pressure Precip Precip Rate Daily Precip Total
12:00 AM 49.5°F9.7°C 41.5°F5.3°C 74% 19.5 mph NE31.4 kmh NE 31.5 mph50.7 kmh 29.40 in995.6 mb 0.00 in0.0 mm 0.00 in0.0 mm 0.00 in0.0 mm
12:05 AM 49.6°F9.8°C 42.0°F5.6°C 75% 16.1 mph NE25.9 kmh NE 34.9 mph56.2 kmh 29.40 in995.6 mb 0.00 in0.0 mm 0.00 in0.0 mm 0.00 in0.0 mm
12:10 AM 49.6°F9.8°C 41.6°F5.3°C 74% 21.3 mph ENE34.3 kmh ENE 34.9 mph56.2 kmh 29.38 in994.9 mb 0.00 in0.0 mm 0.00 in0.0 mm 0.00 in0.0 mm
12:15 AM 49.5°F9.7°C 41.8°F5.4°C 75% 18.3 mph ENE29.5 kmh ENE 29.8 mph48.0 kmh 29.39 in995.3 mb 0.00 in0.0 mm 0.00 in0.0 mm 0.00 in0.0 mm
12:20 AM 49.6°F9.8°C 42.3°F5.7°C 76% 20.6 mph NE33.2 kmh NE 29.8 mph48.0 kmh 29.39 in995.3 mb 0.00 in0.0 mm 0.00 in0.0 mm 0.00 in0.0 mm
12:25 AM 49.6°F9.8°C 42.0°F5.6°C 75% 8.5 mph NE13.7 kmh NE 34.9 mph56.2 kmh 29.39 in995.3 mb 0.00 in0.0 mm 0.00 in0.0 mm 0.00 in0.0 mm
12:30 AM 49.6°F9.8°C 42.0°F5.6°C 75% 21.0 mph NE33.8 kmh NE 34.9 mph56.2 kmh 29.39 in995.3 mb 0.00 in0.0 mm 0.00 in0.0 mm 0.00 in0.0 mm
12:35 AM 49.5°F9.7°C 42.5°F5.8°C 77% 17.4 mph NE28.0 kmh NE 32.0 mph51.5 kmh 29.39 in995.3 mb 0.00 in0.0 mm 0.00 in0.0 mm 0.00 in0.0 mm
12:40 AM 49.3°F9.6°C 43.0°F6.1°C 79% 16.1 mph NE25.9 kmh NE 27.1 mph43.6 kmh 29.39 in995.3 mb 0.00 in0.0 mm 0.00 in0.0 mm 0.00 in0.0 mm
12:45 AM 49.1°F9.5°C 42.8°F6.0°C 79% 11.9 mph NE19.2 kmh NE 26.6 mph42.8 kmh 29.39 in995.3 mb 0.00 in0.0 mm 0.00 in0.0 mm 0.00 in0.0 mm
12:50 AM 49.3°F9.6°C 42.7°F5.9°C 78% 26.2 mph NE42.2 kmh NE 30.4 mph48.9 kmh 29.39 in995.3 mb 0.00 in0.0 mm 0.00 in0.0 mm 0.00 in0.0 mm
12:55 AM 49.5°F9.7°C 42.5°F5.8°C 77% 17.2 mph ENE27.7 kmh ENE 30.4 mph48.9 kmh 29.38 in994.9 mb 0.00 in0.0 mm 0.00 in0.0 mm 0.00 in0.0 mm
01:00 AM 49.6°F9.8°C 43.0°F6.1°C 78% 17.0 mph ENE27.4 kmh ENE 30.9 mph49.7 kmh 29.38 in994.9 mb 0.00 in0.0 mm 0.00 in0.0 mm 0.00 in0.0 mm
01:05 AM 49.3°F9.6°C 43.0°F6.1°C 79% 11.4 mph NE18.3 kmh NE 32.4 mph52.1 kmh 29.38 in994.9 mb 0.00 in0.0 mm 0.00 in0.0 mm 0.00 in0.0 mm
01:10 AM 49.6°F9.8°C 43.0°F6.1°C 78% 11.4 mph NE18.3 kmh NE 32.4 mph52.1 kmh 29.38 in994.9 mb 0.00 in0.0 mm 0.00 in0.0 mm 0.00 in0.0 mm
01:15 AM 49.6°F9.8°C 43.0°F6.1°C 78% 10.5 mph NE16.9 kmh NE 29.5 mph47.5 kmh 29.38 in994.9 mb 0.00 in0.0 mm 0.00 in0.0 mm 0.00 in0.0 mm
01:20 AM 49.6°F9.8°C 42.7°F5.9°C 77% 28.6 mph NE46.0 kmh NE 36.2 mph58.3 kmh 29.38 in994.9 mb 0.00 in0.0 mm 0.00 in0.0 mm 0.00 in0.0 mm
01:25 AM 49.6°F9.8°C 42.7°F5.9°C 77% 19.0 mph NE30.6 kmh NE 36.2 mph58.3 kmh 29.38 in994.9 mb 0.00 in0.0 mm 0.00 in0.0 mm 0.00 in0.0 mm
01:30 AM 49.6°F9.8°C 42.7°F5.9°C 77% 20.1 mph NE32.3 kmh NE 32.9 mph52.9 kmh 29.37 in994.6 mb 0.00 in0.0 mm 0.00 in0.0 mm 0.00 in0.0 mm
01:35 AM 49.3°F9.6°C 42.3°F5.7°C 77% 17.7 mph NE28.5 kmh NE 39.4 mph63.4 kmh 29.37 in994.6 mb 0.00 in0.0 mm 0.00 in0.0 mm 0.00 in0.0 mm
01:40 AM 49.5°F9.7°C 42.5°F5.8°C 77% 13.9 mph NE22.4 kmh NE 39.4 mph63.4 kmh 29.37 in994.6 mb 0.00 in0.0 mm 0.00 in0.0 mm 0.00 in0.0 mm
01:45 AM 49.6°F9.8°C 42.3°F5.7°C 76% 26.2 mph NE42.2 kmh NE 34.0 mph54.7 kmh 29.37 in994.6 mb 0.00 in0.0 mm 0.00 in0.0 mm 0.00 in0.0 mm
01:50 AM 49.6°F9.8°C 42.3°F5.7°C 76% 43.8 mph NE70.5 kmh NE 43.8 mph70.5 kmh 29.37 in994.6 mb 0.00 in0.0 mm 0.00 in0.0 mm 0.00 in0.0 mm
01:55 AM 49.8°F9.9°C 42.2°F5.7°C 75% 24.4 mph NE39.3 kmh NE 43.8 mph70.5 kmh 29.37 in994.6 mb 0.00 in0.0 mm 0.00 in0.0 mm 0.00 in0.0 mm
02:00 AM 49.8°F9.9°C 42.2°F5.7°C 75% 15.0 mph NE24.1 kmh NE 40.9 mph65.8 kmh 29.38 in994.9 mb 0.00 in0.0 mm 0.00 in0.0 mm 0.00 in0.0 mm
02:05 AM 49.8°F9.9°C 42.5°F5.8°C 76% 17.0 mph NE27.4 kmh NE 40.7 mph65.5 kmh 29.39 in995.3 mb 0.00 in0.0 mm 0.00 in0.0 mm 0.00 in0.0 mm
02:10 AM 49.8°F9.9°C 42.5°F5.8°C 76% 10.7 mph NNE17.2 kmh NNE 36.0 mph57.9 kmh 29.40 in995.6 mb 0.00 in0.0 mm 0.00 in0.0 mm 0.00 in0.0 mm
02:15 AM 49.8°F9.9°C 43.2°F6.2°C 78% 24.4 mph NNE39.3 kmh NNE 36.0 mph57.9 kmh 29.40 in995.6 mb 0.00 in0.0 mm 0.00 in0.0 mm 0.00 in0.0 mm
02:20 AM 49.6°F9.8°C 43.0°F6.1°C 78% 15.4 mph NE24.8 kmh NE 31.3 mph50.4 kmh 29.41 in995.9 mb 0.00 in0.0 mm 0.00 in0.0 mm 0.00 in0.0 mm
02:25 AM 49.6°F9.8°C 43.7°F6.5°C 80% 24.2 mph NNE38.9 kmh NNE 31.3 mph50.4 kmh 29.43 in996.6 mb 0.00 in0.0 mm 0.00 in0.0 mm 0.00 in0.0 mm
02:30 AM 49.3°F9.6°C 43.3°F6.3°C 80% 17.4 mph NE28.0 kmh NE 33.8 mph54.4 kmh 29.43 in996.6 mb 0.00 in0.0 mm 0.00 in0.0 mm 0.00 in0.0 mm
02:35 AM 49.3°F9.6°C 43.3°F6.3°C 80% 19.5 mph NNE31.4 kmh NNE 33.8 mph54.4 kmh 29.44 in997.0 mb 0.00 in0.0 mm 0.00 in0.0 mm 0.00 in0.0 mm
02:40 AM 49.3°F9.6°C 43.6°F6.4°C 81% 22.8 mph NNE36.7 kmh NNE 28.9 mph46.5 kmh 29.45 in997.3 mb 0.00 in0.0 mm 0.00 in0.0 mm 0.00 in0.0 mm
02:45 AM 49.1°F9.5°C 43.8°F6.6°C 82% 17.2 mph NNE27.7 kmh NNE 36.7 mph59.1 kmh 29.45 in997.3 mb 0.00 in0.0 mm 0.00 in0.0 mm 0.00 in0.0 mm
02:50 AM 48.9°F9.4°C 44.2°F6.8°C 84% 18.3 mph NNE29.5 kmh NNE 36.7 mph59.1 kmh 29.46 in997.6 mb 0.00 in0.0 mm 0.00 in0.0 mm 0.00 in0.0 mm
02:55 AM 48.9°F9.4°C 44.2°F6.8°C 84% 15.2 mph NE24.5 kmh NE 25.9 mph41.7 kmh 29.47 in998.0 mb 0.00 in0.0 mm 0.00 in0.0 mm 0.00 in0.0 mm
03:00 AM 48.9°F9.4°C 44.2°F6.8°C 84% 23.3 mph NNE37.5 kmh NNE 30.0 mph48.3 kmh 29.46 in997.6 mb 0.00 in0.0 mm 0.00 in0.0 mm 0.00 in0.0 mm
03:05 AM 49.1°F9.5°C 44.1°F6.7°C 83% 5.6 mph N9.0 kmh N 30.0 mph48.3 kmh 29.46 in997.6 mb 0.00 in0.0 mm 0.00 in0.0 mm 0.00 in0.0 mm
03:10 AM 49.3°F9.6°C 44.3°F6.8°C 83% 15.2 mph NNE24.5 kmh NNE 26.4 mph42.5 kmh 29.46 in997.6 mb 0.00 in0.0 mm 0.00 in0.0 mm 0.00 in0.0 mm
03:15 AM 49.6°F9.8°C 44.9°F7.2°C 84% 17.2 mph NNE27.7 kmh NNE 28.2 mph45.4 kmh 29.46 in997.6 mb 0.00 in0.0 mm 0.00 in0.0 mm 0.00 in0.0 mm
03:20 AM 49.5°F9.7°C 45.1°F7.3°C 85% 21.0 mph N33.8 kmh N 28.4 mph45.7 kmh 29.47 in998.0 mb 0.02 in0.5 mm 0.24 in6.1 mm 0.02 in0.5 mm
03:25 AM 49.3°F9.6°C 44.9°F7.2°C 85% 12.1 mph N19.5 kmh N 32.9 mph52.9 kmh 29.46 in997.6 mb 0.02 in0.5 mm 0.00 in0.0 mm 0.02 in0.5 mm
03:30 AM 49.5°F9.7°C 45.4°F7.4°C 86% 11.9 mph NE19.2 kmh NE 32.9 mph52.9 kmh 29.47 in998.0 mb 0.02 in0.5 mm 0.00 in0.0 mm 0.02 in0.5 mm
03:35 AM 49.5°F9.7°C 45.4°F7.4°C 86% 7.4 mph NNE11.9 kmh NNE 30.6 mph49.2 kmh 29.48 in998.3 mb 0.02 in0.5 mm 0.00 in0.0 mm 0.02 in0.5 mm
03:40 AM 49.3°F9.6°C 45.5°F7.5°C 87% 5.8 mph NNE9.3 kmh NNE 30.6 mph49.2 kmh 29.48 in998.3 mb 0.02 in0.5 mm 0.00 in0.0 mm 0.02 in0.5 mm
03:45 AM 49.3°F9.6°C 45.5°F7.5°C 87% 7.6 mph N12.2 kmh N 24.2 mph38.9 kmh 29.47 in998.0 mb 0.04 in1.0 mm 0.24 in6.1 mm 0.04 in1.0 mm
03:50 AM 49.3°F9.6°C 45.5°F7.5°C 87% 5.8 mph N9.3 kmh N 25.7 mph41.4 kmh 29.47 in998.0 mb 0.04 in1.0 mm 0.00 in0.0 mm 0.04 in1.0 mm
03:55 AM 49.3°F9.6°C 45.8°F7.7°C 88% 16.1 mph N25.9 kmh N 25.7 mph41.4 kmh 29.46 in997.6 mb 0.04 in1.0 mm 0.00 in0.0 mm 0.04 in1.0 mm
04:00 AM 49.3°F9.6°C 45.8°F7.7°C 88% 23.7 mph NNE38.1 kmh NNE 33.6 mph54.1 kmh 29.46 in997.6 mb 0.04 in1.0 mm 0.00 in0.0 mm 0.04 in1.0 mm
04:05 AM 49.6°F9.8°C 46.2°F7.9°C 88% 21.0 mph NNE33.8 kmh NNE 33.6 mph54.1 kmh 29.47 in998.0 mb 0.04 in1.0 mm 0.00 in0.0 mm 0.04 in1.0 mm
04:10 AM 49.6°F9.8°C 46.2°F7.9°C 88% 13.6 mph NNE21.9 kmh NNE 27.5 mph44.3 kmh 29.46 in997.6 mb 0.06 in1.5 mm 0.24 in6.1 mm 0.06 in1.5 mm
04:15 AM 49.8°F9.9°C 46.3°F7.9°C 88% 21.0 mph NNE33.8 kmh NNE 34.0 mph54.7 kmh 29.46 in997.6 mb 0.06 in1.5 mm 0.00 in0.0 mm 0.06 in1.5 mm
04:20 AM 49.8°F9.9°C 46.3°F7.9°C 88% 13.6 mph NNE21.9 kmh NNE 34.0 mph54.7 kmh 29.46 in997.6 mb 0.04 in1.0 mm 0.00 in0.0 mm 0.06 in1.5 mm
04:25 AM 50.2°F10.1°C 46.7°F8.2°C 88% 11.4 mph NE18.3 kmh NE 33.1 mph53.3 kmh 29.46 in997.6 mb 0.04 in1.0 mm 0.00 in0.0 mm 0.06 in1.5 mm
04:30 AM 50.2°F10.1°C 47.0°F8.3°C 89% 9.2 mph NE14.8 kmh NE 33.1 mph53.3 kmh 29.47 in998.0 mb 0.04 in1.0 mm 0.00 in0.0 mm 0.06 in1.5 mm
04:35 AM 50.5°F10.3°C 47.0°F8.3°C 88% 12.8 mph NE20.6 kmh NE 30.0 mph48.3 kmh 29.47 in998.0 mb 0.04 in1.0 mm 0.00 in0.0 mm 0.06 in1.5 mm
04:40 AM 50.5°F10.3°C 47.4°F8.6°C 89% 13.9 mph NE22.4 kmh NE 29.3 mph47.2 kmh 29.47 in998.0 mb 0.04 in1.0 mm 0.00 in0.0 mm 0.06 in1.5 mm
04:45 AM 50.7°F10.4°C 47.2°F8.4°C 88% 16.6 mph NE26.7 kmh NE 29.3 mph47.2 kmh 29.46 in997.6 mb 0.02 in0.5 mm 0.00 in0.0 mm 0.06 in1.5 mm
04:50 AM 50.7°F10.4°C 47.5°F8.6°C 89% 12.5 mph NE20.1 kmh NE 32.9 mph52.9 kmh 29.46 in997.6 mb 0.02 in0.5 mm 0.00 in0.0 mm 0.06 in1.5 mm
04:55 AM 50.7°F10.4°C 47.5°F8.6°C 89% 23.7 mph NE38.1 kmh NE 32.9 mph52.9 kmh 29.47 in998.0 mb 0.02 in0.5 mm 0.00 in0.0 mm 0.06 in1.5 mm
05:00 AM 50.9°F10.5°C 47.4°F8.6°C 88% 12.8 mph NE20.6 kmh NE 28.0 mph45.1 kmh 29.47 in998.0 mb 0.02 in0.5 mm 0.00 in0.0 mm 0.06 in1.5 mm
05:05 AM 50.9°F10.5°C 47.4°F8.6°C 88% 24.4 mph NE39.3 kmh NE 28.6 mph46.0 kmh 29.46 in997.6 mb 0.02 in0.5 mm 0.00 in0.0 mm 0.06 in1.5 mm
05:10 AM 51.1°F10.6°C 47.6°F8.7°C 88% 13.0 mph NE20.9 kmh NE 28.6 mph46.0 kmh 29.46 in997.6 mb 0.00 in0.0 mm 0.00 in0.0 mm 0.06 in1.5 mm
05:15 AM 51.1°F10.6°C 47.6°F8.7°C 88% 20.6 mph NE33.2 kmh NE 32.2 mph51.8 kmh 29.47 in998.0 mb 0.02 in0.5 mm 0.24 in6.1 mm 0.08 in2.0 mm
05:20 AM 51.3°F10.7°C 47.8°F8.8°C 88% 14.8 mph NE23.8 kmh NE 34.4 mph55.4 kmh 29.46 in997.6 mb 0.02 in0.5 mm 0.00 in0.0 mm 0.08 in2.0 mm
05:25 AM 51.4°F10.8°C 47.9°F8.8°C 88% 18.6 mph NE29.9 kmh NE 34.4 mph55.4 kmh 29.47 in998.0 mb 0.02 in0.5 mm 0.00 in0.0 mm 0.08 in2.0 mm
05:30 AM 51.4°F10.8°C 47.9°F8.8°C 88% 19.7 mph NE31.7 kmh NE 34.4 mph55.4 kmh 29.48 in998.3 mb 0.02 in0.5 mm 0.00 in0.0 mm 0.08 in2.0 mm
05:35 AM 51.4°F10.8°C 47.9°F8.8°C 88% 17.9 mph NE28.8 kmh NE 30.9 mph49.7 kmh 29.47 in998.0 mb 0.02 in0.5 mm 0.00 in0.0 mm 0.08 in2.0 mm
05:40 AM 51.4°F10.8°C 47.9°F8.8°C 88% 15.2 mph NE24.5 kmh NE 32.7 mph52.6 kmh 29.48 in998.3 mb 0.02 in0.5 mm 0.00 in0.0 mm 0.08 in2.0 mm
05:45 AM 51.4°F10.8°C 47.9°F8.8°C 88% 16.8 mph NE27.0 kmh NE 40.0 mph64.4 kmh 29.49 in998.6 mb 0.02 in0.5 mm 0.00 in0.0 mm 0.08 in2.0 mm
05:50 AM 51.4°F10.8°C 47.9°F8.8°C 88% 31.5 mph NE50.7 kmh NE 40.0 mph64.4 kmh 29.49 in998.6 mb 0.02 in0.5 mm 0.00 in0.0 mm 0.08 in2.0 mm
05:55 AM 51.4°F10.8°C 47.9°F8.8°C 88% 14.3 mph NE23.0 kmh NE 31.5 mph50.7 kmh 29.50 in999.0 mb 0.02 in0.5 mm 0.00 in0.0 mm 0.08 in2.0 mm
06:00 AM 51.4°F10.8°C 47.6°F8.7°C 87% 16.1 mph NNE25.9 kmh NNE 35.1 mph56.5 kmh 29.50 in999.0 mb 0.04 in1.0 mm 0.02 in0.5 mm 0.10 in2.5 mm
06:05 AM 51.4°F10.8°C 47.6°F8.7°C 87% 16.3 mph N26.2 kmh N 35.3 mph56.8 kmh 29.50 in999.0 mb 0.04 in1.0 mm 0.00 in0.0 mm 0.10 in2.5 mm
06:10 AM 51.4°F10.8°C 47.9°F8.8°C 88% 9.8 mph NNE15.8 kmh NNE 35.3 mph56.8 kmh 29.51 in999.3 mb 0.04 in1.0 mm 0.00 in0.0 mm 0.10 in2.5 mm
06:15 AM 51.4°F10.8°C 47.6°F8.7°C 87% 12.5 mph NNE20.1 kmh NNE 28.0 mph45.1 kmh 29.51 in999.3 mb 0.02 in0.5 mm 0.00 in0.0 mm 0.10 in2.5 mm
06:20 AM 51.4°F10.8°C 47.6°F8.7°C 87% 15.9 mph NE25.6 kmh NE 31.8 mph51.2 kmh 29.51 in999.3 mb 0.02 in0.5 mm 0.00 in0.0 mm 0.10 in2.5 mm
06:25 AM 51.6°F10.9°C 47.8°F8.8°C 87% 14.3 mph NE23.0 kmh NE 33.3 mph53.6 kmh 29.50 in999.0 mb 0.02 in0.5 mm 0.00 in0.0 mm 0.10 in2.5 mm
06:30 AM 51.6°F10.9°C 47.8°F8.8°C 87% 21.3 mph NE34.3 kmh NE 33.3 mph53.6 kmh 29.51 in999.3 mb 0.02 in0.5 mm 0.00 in0.0 mm 0.10 in2.5 mm
06:35 AM 51.6°F10.9°C 47.8°F8.8°C 87% 23.9 mph NE38.5 kmh NE 26.8 mph43.1 kmh 29.52 in999.7 mb 0.02 in0.5 mm 0.00 in0.0 mm 0.10 in2.5 mm
06:40 AM 51.6°F10.9°C 47.8°F8.8°C 87% 10.5 mph NE16.9 kmh NE 29.1 mph46.8 kmh 29.51 in999.3 mb 0.02 in0.5 mm 0.00 in0.0 mm 0.10 in2.5 mm
06:45 AM 51.6°F10.9°C 47.8°F8.8°C 87% 17.4 mph NE28.0 kmh NE 29.1 mph46.8 kmh 29.51 in999.3 mb 0.02 in0.5 mm 0.00 in0.0 mm 0.10 in2.5 mm
06:50 AM 51.8°F11.0°C 48.0°F8.9°C 87% 5.8 mph ENE9.3 kmh ENE 31.1 mph50.1 kmh 29.50 in999.0 mb 0.02 in0.5 mm 0.00 in0.0 mm 0.10 in2.5 mm
06:55 AM 51.8°F11.0°C 48.0°F8.9°C 87% 14.5 mph ENE23.3 kmh ENE 31.1 mph50.1 kmh 29.50 in999.0 mb 0.02 in0.5 mm 0.00 in0.0 mm 0.10 in2.5 mm
07:00 AM 51.6°F10.9°C 47.8°F8.8°C 87% 7.6 mph NE12.2 kmh NE 29.3 mph47.2 kmh 29.51 in999.3 mb 0.00 in0.0 mm 0.00 in0.0 mm 0.10 in2.5 mm
07:05 AM 51.6°F10.9°C 47.8°F8.8°C 87% 6.7 mph NE10.8 kmh NE 29.3 mph47.2 kmh 29.51 in999.3 mb 0.00 in0.0 mm 0.00 in0.0 mm 0.10 in2.5 mm
07:10 AM 51.6°F10.9°C 47.8°F8.8°C 87% 6.9 mph ENE11.1 kmh ENE 17.4 mph28.0 kmh 29.51 in999.3 mb 0.00 in0.0 mm 0.00 in0.0 mm 0.10 in2.5 mm
07:15 AM 51.6°F10.9°C 47.5°F8.6°C 86% 3.8 mph E6.1 kmh E 17.2 mph27.7 kmh 29.52 in999.7 mb 0.00 in0.0 mm 0.00 in0.0 mm 0.10 in2.5 mm
07:20 AM 51.6°F10.9°C 47.5°F8.6°C 86% 8.9 mph E14.3 kmh E 22.4 mph36.0 kmh 29.52 in999.7 mb 0.00 in0.0 mm 0.00 in0.0 mm 0.10 in2.5 mm
07:25 AM 51.8°F11.0°C 47.7°F8.7°C 86% 3.1 mph E5.0 kmh E 22.4 mph36.0 kmh 29.53 in1000.0 mb 0.00 in0.0 mm 0.00 in0.0 mm 0.10 in2.5 mm
07:30 AM 52.0°F11.1°C 47.6°F8.7°C 85% 26.2 mph ENE42.2 kmh ENE 26.2 mph42.2 kmh 29.54 in1000.3 mb 0.00 in0.0 mm 0.00 in0.0 mm 0.10 in2.5 mm
07:35 AM 52.0°F11.1°C 47.6°F8.7°C 85% 6.9 mph NE11.1 kmh NE 26.2 mph42.2 kmh 29.54 in1000.3 mb 0.00 in0.0 mm 0.00 in0.0 mm 0.10 in2.5 mm
07:40 AM 52.0°F11.1°C 47.3°F8.5°C 84% 4.9 mph ENE7.9 kmh ENE 25.7 mph41.4 kmh 29.55 in1000.7 mb 0.00 in0.0 mm 0.00 in0.0 mm 0.10 in2.5 mm
07:45 AM 52.2°F11.2°C 47.4°F8.6°C 84% 9.4 mph E15.1 kmh E 22.1 mph35.6 kmh 29.55 in1000.7 mb 0.00 in0.0 mm 0.00 in0.0 mm 0.10 in2.5 mm
07:50 AM 52.2°F11.2°C 47.4°F8.6°C 84% 4.9 mph E7.9 kmh E 28.2 mph45.4 kmh 29.55 in1000.7 mb 0.00 in0.0 mm 0.00 in0.0 mm 0.10 in2.5 mm
07:55 AM 52.2°F11.2°C 47.4°F8.6°C 84% 3.1 mph NE5.0 kmh NE 28.2 mph45.4 kmh 29.56 in1001.0 mb 0.00 in0.0 mm 0.00 in0.0 mm 0.10 in2.5 mm
08:00 AM 52.3°F11.3°C 47.3°F8.5°C 83% 4.0 mph ENE6.4 kmh ENE 21.7 mph34.9 kmh 29.55 in1000.7 mb 0.00 in0.0 mm 0.00 in0.0 mm 0.10 in2.5 mm
08:05 AM 52.3°F11.3°C 47.3°F8.5°C 83% Calm Calm 21.7 mph34.9 kmh 29.56 in1001.0 mb 0.00 in0.0 mm 0.00 in0.0 mm 0.10 in2.5 mm
08:10 AM 52.3°F11.3°C 47.3°F8.5°C 83% 7.6 mph E12.2 kmh E 17.0 mph27.4 kmh 29.55 in1000.7 mb 0.00 in0.0 mm 0.00 in0.0 mm 0.10 in2.5 mm
08:15 AM 52.3°F11.3°C 47.3°F8.5°C 83% 4.9 mph ENE7.9 kmh ENE 24.4 mph39.3 kmh 29.55 in1000.7 mb 0.00 in0.0 mm 0.00 in0.0 mm 0.10 in2.5 mm
08:20 AM 52.3°F11.3°C 47.3°F8.5°C 83% 12.3 mph ENE19.8 kmh ENE 25.9 mph41.7 kmh 29.56 in1001.0 mb 0.00 in0.0 mm 0.00 in0.0 mm 0.10 in2.5 mm
08:25 AM 52.3°F11.3°C 47.3°F8.5°C 83% 18.1 mph ENE29.1 kmh ENE 25.9 mph41.7 kmh 29.55 in1000.7 mb 0.00 in0.0 mm 0.00 in0.0 mm 0.10 in2.5 mm
08:30 AM 52.3°F11.3°C 47.3°F8.5°C 83% 16.3 mph ENE26.2 kmh ENE 25.7 mph41.4 kmh 29.55 in1000.7 mb 0.00 in0.0 mm 0.00 in0.0 mm 0.10 in2.5 mm
08:35 AM 52.3°F11.3°C 47.3°F8.5°C 83% 16.8 mph ENE27.0 kmh ENE 38.5 mph62.0 kmh 29.55 in1000.7 mb 0.00 in0.0 mm 0.00 in0.0 mm 0.10 in2.5 mm
08:40 AM 52.3°F11.3°C 47.3°F8.5°C 83% 21.7 mph NE34.9 kmh NE 38.5 mph62.0 kmh 29.55 in1000.7 mb 0.00 in0.0 mm 0.00 in0.0 mm 0.10 in2.5 mm
08:45 AM 52.3°F11.3°C 47.3°F8.5°C 83% 12.3 mph NE19.8 kmh NE 30.2 mph48.6 kmh 29.55 in1000.7 mb 0.00 in0.0 mm 0.00 in0.0 mm 0.10 in2.5 mm
08:50 AM 52.3°F11.3°C 47.3°F8.5°C 83% 12.8 mph ENE20.6 kmh ENE 33.3 mph53.6 kmh 29.55 in1000.7 mb 0.00 in0.0 mm 0.00 in0.0 mm 0.10 in2.5 mm
08:55 AM 52.3°F11.3°C 47.3°F8.5°C 83% 16.8 mph ENE27.0 kmh ENE 33.3 mph53.6 kmh 29.55 in1000.7 mb 0.00 in0.0 mm 0.00 in0.0 mm 0.10 in2.5 mm
09:00 AM 52.5°F11.4°C 47.5°F8.6°C 83% 13.2 mph ENE21.2 kmh ENE 30.9 mph49.7 kmh 29.56 in1001.0 mb 0.00 in0.0 mm 0.00 in0.0 mm 0.10 in2.5 mm
09:05 AM 52.7°F11.5°C 47.4°F8.6°C 82% 6.9 mph NE11.1 kmh NE 27.7 mph44.6 kmh 29.57 in1001.4 mb 0.00 in0.0 mm 0.00 in0.0 mm 0.10 in2.5 mm
09:10 AM 52.9°F11.6°C 47.6°F8.7°C 82% 4.7 mph E7.6 kmh E 18.1 mph29.1 kmh 29.57 in1001.4 mb 0.00 in0.0 mm 0.00 in0.0 mm 0.10 in2.5 mm
09:15 AM 52.9°F11.6°C 47.6°F8.7°C 82% 7.6 mph SE12.2 kmh SE 18.1 mph29.1 kmh 29.58 in1001.7 mb 0.00 in0.0 mm 0.00 in0.0 mm 0.10 in2.5 mm
09:20 AM 53.1°F11.7°C 47.7°F8.7°C 82% 11.6 mph ESE18.7 kmh ESE 26.2 mph42.2 kmh 29.58 in1001.7 mb 0.00 in0.0 mm 0.00 in0.0 mm 0.10 in2.5 mm
09:25 AM 52.9°F11.6°C 47.6°F8.7°C 82% 5.1 mph E8.2 kmh E 26.2 mph42.2 kmh 29.58 in1001.7 mb 0.00 in0.0 mm 0.00 in0.0 mm 0.10 in2.5 mm
09:30 AM 53.2°F11.8°C 47.9°F8.8°C 82% 12.1 mph E19.5 kmh E 19.2 mph30.9 kmh 29.58 in1001.7 mb 0.00 in0.0 mm 0.00 in0.0 mm 0.10 in2.5 mm
09:35 AM 53.2°F11.8°C 47.9°F8.8°C 82% 11.2 mph E18.0 kmh E 20.6 mph33.2 kmh 29.59 in1002.0 mb 0.00 in0.0 mm 0.00 in0.0 mm 0.10 in2.5 mm
09:40 AM 53.2°F11.8°C 47.9°F8.8°C 82% 4.0 mph E6.4 kmh E 20.6 mph33.2 kmh 29.58 in1001.7 mb 0.00 in0.0 mm 0.00 in0.0 mm 0.10 in2.5 mm
09:45 AM 53.2°F11.8°C 47.9°F8.8°C 82% 4.5 mph SE7.2 kmh SE 18.3 mph29.5 kmh 29.59 in1002.0 mb 0.00 in0.0 mm 0.00 in0.0 mm 0.10 in2.5 mm
09:50 AM 53.2°F11.8°C 47.9°F8.8°C 82% 8.1 mph SE13.0 kmh SE 15.2 mph24.5 kmh 29.59 in1002.0 mb 0.00 in0.0 mm 0.00 in0.0 mm 0.10 in2.5 mm
09:55 AM 53.4°F11.9°C 47.8°F8.8°C 81% 3.6 mph ESE5.8 kmh ESE 21.3 mph34.3 kmh 29.58 in1001.7 mb 0.00 in0.0 mm 0.00 in0.0 mm 0.10 in2.5 mm
10:00 AM 53.4°F11.9°C 47.8°F8.8°C 81% 9.6 mph ENE15.4 kmh ENE 21.3 mph34.3 kmh 29.58 in1001.7 mb 0.00 in0.0 mm 0.00 in0.0 mm 0.10 in2.5 mm
10:05 AM 53.4°F11.9°C 47.8°F8.8°C 81% 15.0 mph ENE24.1 kmh ENE 21.3 mph34.3 kmh 29.58 in1001.7 mb 0.00 in0.0 mm 0.00 in0.0 mm 0.10 in2.5 mm
10:10 AM 53.8°F12.1°C 48.1°F8.9°C 81% 8.5 mph ENE13.7 kmh ENE 21.7 mph34.9 kmh 29.59 in1002.0 mb 0.00 in0.0 mm 0.00 in0.0 mm 0.10 in2.5 mm
10:15 AM 53.8°F12.1°C 47.8°F8.8°C 80% 10.5 mph NE16.9 kmh NE 40.5 mph65.2 kmh 29.59 in1002.0 mb 0.00 in0.0 mm 0.00 in0.0 mm 0.10 in2.5 mm
10:20 AM 53.8°F12.1°C 47.8°F8.8°C 80% 16.3 mph NE26.2 kmh NE 40.5 mph65.2 kmh 29.60 in1002.4 mb 0.00 in0.0 mm 0.00 in0.0 mm 0.10 in2.5 mm
10:25 AM 54.0°F12.2°C 48.0°F8.9°C 80% 15.9 mph NE25.6 kmh NE 25.1 mph40.4 kmh 29.59 in1002.0 mb 0.00 in0.0 mm 0.00 in0.0 mm 0.10 in2.5 mm
10:30 AM 54.1°F12.3°C 48.1°F8.9°C 80% 3.4 mph NE5.5 kmh NE 30.0 mph48.3 kmh 29.60 in1002.4 mb 0.00 in0.0 mm 0.00 in0.0 mm 0.10 in2.5 mm
10:35 AM 54.3°F12.4°C 47.9°F8.8°C 79% 16.6 mph ENE26.7 kmh ENE 30.0 mph48.3 kmh 29.60 in1002.4 mb 0.00 in0.0 mm 0.00 in0.0 mm 0.10 in2.5 mm
10:40 AM 54.5°F12.5°C 48.1°F8.9°C 79% 15.4 mph ENE24.8 kmh ENE 28.6 mph46.0 kmh 29.59 in1002.0 mb 0.00 in0.0 mm 0.00 in0.0 mm 0.10 in2.5 mm
10:45 AM 54.7°F12.6°C 47.9°F8.8°C 78% 12.8 mph NE20.6 kmh NE 27.3 mph43.9 kmh 29.60 in1002.4 mb 0.00 in0.0 mm 0.00 in0.0 mm 0.10 in2.5 mm
10:50 AM 55.2°F12.9°C 47.9°F8.8°C 78% 24.2 mph NE38.9 kmh NE 27.3 mph43.9 kmh 29.60 in1002.4 mb 0.00 in0.0 mm 0.00 in0.0 mm 0.10 in2.5 mm
10:55 AM 55.2°F12.9°C 48.1°F8.9°C 77% 17.0 mph NE27.4 kmh NE 26.4 mph42.5 kmh 29.60 in1002.4 mb 0.00 in0.0 mm 0.00 in0.0 mm 0.10 in2.5 mm
11:00 AM 55.4°F13.0°C 48.3°F9.1°C 77% 10.7 mph NE17.2 kmh NE 24.2 mph38.9 kmh 29.61 in1002.7 mb 0.00 in0.0 mm 0.00 in0.0 mm 0.10 in2.5 mm
11:05 AM 55.6°F13.1°C 48.4°F9.1°C 77% 13.2 mph ENE21.2 kmh ENE 24.2 mph38.9 kmh 29.60 in1002.4 mb 0.00 in0.0 mm 0.00 in0.0 mm 0.10 in2.5 mm
11:10 AM 55.6°F13.1°C 48.4°F9.1°C 77% 20.1 mph NE32.3 kmh NE 23.5 mph37.8 kmh 29.60 in1002.4 mb 0.00 in0.0 mm 0.00 in0.0 mm 0.10 in2.5 mm
11:15 AM 55.6°F13.1°C 48.4°F9.1°C 77% 15.2 mph NE24.5 kmh NE 23.5 mph37.8 kmh 29.60 in1002.4 mb 0.00 in0.0 mm 0.00 in0.0 mm 0.10 in2.5 mm
11:20 AM 55.8°F13.2°C 48.9°F9.4°C 78% 11.2 mph NE18.0 kmh NE 22.8 mph36.7 kmh 29.61 in1002.7 mb 0.00 in0.0 mm 0.00 in0.0 mm 0.10 in2.5 mm
11:25 AM 55.9°F13.3°C 48.8°F9.3°C 77% 12.5 mph NE20.1 kmh NE 20.8 mph33.5 kmh 29.60 in1002.4 mb 0.00 in0.0 mm 0.00 in0.0 mm 0.10 in2.5 mm
11:30 AM 56.1°F13.4°C 48.6°F9.2°C 76% 13.6 mph NE21.9 kmh NE 21.3 mph34.3 kmh 29.60 in1002.4 mb 0.00 in0.0 mm 0.00 in0.0 mm 0.10 in2.5 mm
11:35 AM 56.3°F13.5°C 48.8°F9.3°C 76% 10.7 mph NE17.2 kmh NE 25.5 mph41.0 kmh 29.60 in1002.4 mb 0.00 in0.0 mm 0.00 in0.0 mm 0.10 in2.5 mm
11:40 AM 56.1°F13.4°C 48.6°F9.2°C 76% 17.7 mph NE28.5 kmh NE 25.5 mph41.0 kmh 29.60 in1002.4 mb 0.00 in0.0 mm 0.00 in0.0 mm 0.10 in2.5 mm
11:45 AM 56.3°F13.5°C 48.8°F9.3°C 76% 15.2 mph NE24.5 kmh NE 25.9 mph41.7 kmh 29.60 in1002.4 mb 0.00 in0.0 mm 0.00 in0.0 mm 0.10 in2.5 mm
11:50 AM 56.5°F13.6°C 48.9°F9.4°C 76% 17.9 mph NE28.8 kmh NE 32.0 mph51.5 kmh 29.60 in1002.4 mb 0.00 in0.0 mm 0.00 in0.0 mm 0.10 in2.5 mm
11:55 AM 56.5°F13.6°C 48.6°F9.2°C 75% 7.6 mph NE12.2 kmh NE 32.0 mph51.5 kmh 29.61 in1002.7 mb 0.00 in0.0 mm 0.00 in0.0 mm 0.10 in2.5 mm
12:00 PM 56.5°F13.6°C 48.6°F9.2°C 75% 8.9 mph ENE14.3 kmh ENE 30.9 mph49.7 kmh 29.61 in1002.7 mb 0.00 in0.0 mm 0.00 in0.0 mm 0.10 in2.5 mm
12:05 PM 56.8°F13.8°C 48.9°F9.4°C 75% 21.5 mph NE34.6 kmh NE 30.9 mph49.7 kmh 29.61 in1002.7 mb 0.00 in0.0 mm 0.00 in0.0 mm 0.10 in2.5 mm
12:10 PM 57.0°F13.9°C 48.7°F9.3°C 74% 10.7 mph NE17.2 kmh NE 24.2 mph38.9 kmh 29.62 in1003.0 mb 0.00 in0.0 mm 0.00 in0.0 mm 0.10 in2.5 mm
12:15 PM 57.2°F14.0°C 48.9°F9.4°C 74% 7.8 mph NE12.6 kmh NE 22.4 mph36.0 kmh 29.62 in1003.0 mb 0.00 in0.0 mm 0.00 in0.0 mm 0.10 in2.5 mm
12:20 PM 57.4°F14.1°C 49.1°F9.5°C 74% 17.7 mph NE28.5 kmh NE 21.0 mph33.8 kmh 29.62 in1003.0 mb 0.00 in0.0 mm 0.00 in0.0 mm 0.10 in2.5 mm
12:25 PM 57.2°F14.0°C 48.6°F9.2°C 73% 17.2 mph NE27.7 kmh NE 21.0 mph33.8 kmh 29.63 in1003.4 mb 0.00 in0.0 mm 0.00 in0.0 mm 0.10 in2.5 mm
12:30 PM 57.4°F14.1°C 49.1°F9.5°C 74% 12.8 mph NE20.6 kmh NE 25.1 mph40.4 kmh 29.63 in1003.4 mb 0.00 in0.0 mm 0.00 in0.0 mm 0.10 in2.5 mm
12:35 PM 57.4°F14.1°C 49.1°F9.5°C 73% 12.3 mph NE19.8 kmh NE 25.1 mph40.4 kmh 29.62 in1003.0 mb 0.00 in0.0 mm 0.00 in0.0 mm 0.10 in2.5 mm
12:40 PM 57.4°F14.1°C 48.7°F9.3°C 73% 17.9 mph NE28.8 kmh NE 23.7 mph38.1 kmh 29.62 in1003.0 mb 0.00 in0.0 mm 0.00 in0.0 mm 0.10 in2.5 mm
12:45 PM 57.6°F14.2°C 48.6°F9.2°C 72% 12.3 mph NE19.8 kmh NE 26.2 mph42.2 kmh 29.62 in1003.0 mb 0.00 in0.0 mm 0.00 in0.0 mm 0.10 in2.5 mm
12:50 PM 57.6°F14.2°C 48.2°F9.0°C 71% 18.8 mph NE30.3 kmh NE 37.8 mph60.8 kmh 29.62 in1003.0 mb 0.00 in0.0 mm 0.00 in0.0 mm 0.10 in2.5 mm
12:55 PM 57.7°F14.3°C 48.4°F9.1°C 71% 15.0 mph NE24.1 kmh NE 37.8 mph60.8 kmh 29.62 in1003.0 mb 0.00 in0.0 mm 0.00 in0.0 mm 0.10 in2.5 mm
01:00 PM 57.7°F14.3°C 48.7°F9.3°C 72% 12.8 mph NE20.6 kmh NE 33.8 mph54.4 kmh 29.62 in1003.0 mb 0.00 in0.0 mm 0.00 in0.0 mm 0.10 in2.5 mm
01:05 PM 57.6°F14.2°C 48.2°F9.0°C 71% 14.5 mph NE23.3 kmh NE 33.8 mph54.4 kmh 29.62 in1003.0 mb 0.00 in0.0 mm 0.00 in0.0 mm 0.10 in2.5 mm
01:10 PM 57.6°F14.2°C 48.2°F9.0°C 71% 17.9 mph NE28.8 kmh NE 28.2 mph45.4 kmh 29.61 in1002.7 mb 0.00 in0.0 mm 0.00 in0.0 mm 0.10 in2.5 mm
01:15 PM 57.6°F14.2°C 48.2°F9.0°C 71% 25.3 mph NE40.7 kmh NE 28.4 mph45.7 kmh 29.61 in1002.7 mb 0.00 in0.0 mm 0.00 in0.0 mm 0.10 in2.5 mm
01:20 PM 57.6°F14.2°C 48.2°F9.0°C 71% 16.8 mph NE27.0 kmh NE 38.9 mph62.6 kmh 29.61 in1002.7 mb 0.00 in0.0 mm 0.00 in0.0 mm 0.10 in2.5 mm
01:25 PM 57.7°F14.3°C 48.4°F9.1°C 71% 17.7 mph NE28.5 kmh NE 38.9 mph62.6 kmh 29.62 in1003.0 mb 0.00 in0.0 mm 0.00 in0.0 mm 0.10 in2.5 mm
01:30 PM 57.7°F14.3°C 47.2°F8.4°C 68% 16.6 mph NE26.7 kmh NE 32.9 mph52.9 kmh 29.62 in1003.0 mb 0.00 in0.0 mm 0.00 in0.0 mm 0.10 in2.5 mm
01:35 PM 57.9°F14.4°C 47.8°F8.8°C 69% 17.9 mph NE28.8 kmh NE 29.8 mph48.0 kmh 29.62 in1003.0 mb 0.00 in0.0 mm 0.00 in0.0 mm 0.10 in2.5 mm
01:40 PM 57.7°F14.3°C 48.0°F8.9°C 70% 17.4 mph NE28.0 kmh NE 29.8 mph48.0 kmh 29.62 in1003.0 mb 0.00 in0.0 mm 0.00 in0.0 mm 0.10 in2.5 mm
01:45 PM 57.7°F14.3°C 47.6°F8.7°C 69% 17.4 mph NE28.0 kmh NE 36.7 mph59.1 kmh 29.62 in1003.0 mb 0.00 in0.0 mm 0.00 in0.0 mm 0.10 in2.5 mm
01:50 PM 57.7°F14.3°C 48.0°F8.9°C 70% 11.6 mph NE18.7 kmh NE 38.7 mph62.3 kmh 29.62 in1003.0 mb 0.00 in0.0 mm 0.00 in0.0 mm 0.10 in2.5 mm
01:55 PM 57.7°F14.3°C 48.0°F8.9°C 70% 18.1 mph NE29.1 kmh NE 38.7 mph62.3 kmh 29.61 in1002.7 mb 0.00 in0.0 mm 0.00 in0.0 mm 0.10 in2.5 mm
02:00 PM 57.7°F14.3°C 48.0°F8.9°C 70% 29.5 mph NE47.5 kmh NE 34.0 mph54.7 kmh 29.62 in1003.0 mb 0.00 in0.0 mm 0.00 in0.0 mm 0.10 in2.5 mm
02:05 PM 57.7°F14.3°C 48.4°F9.1°C 71% 7.4 mph NE11.9 kmh NE 34.0 mph54.7 kmh 29.62 in1003.0 mb 0.00 in0.0 mm 0.00 in0.0 mm 0.10 in2.5 mm
02:10 PM 57.7°F14.3°C 47.6°F8.7°C 69% 16.8 mph NE27.0 kmh NE 30.0 mph48.3 kmh 29.63 in1003.4 mb 0.00 in0.0 mm 0.00 in0.0 mm 0.10 in2.5 mm
02:15 PM 57.7°F14.3°C 47.6°F8.7°C 69% 18.1 mph NE29.1 kmh NE 35.3 mph56.8 kmh 29.63 in1003.4 mb 0.00 in0.0 mm 0.00 in0.0 mm 0.10 in2.5 mm
02:20 PM 57.7°F14.3°C 47.6°F8.7°C 69% 11.2 mph NE18.0 kmh NE 35.3 mph56.8 kmh 29.65 in1004.1 mb 0.00 in0.0 mm 0.00 in0.0 mm 0.10 in2.5 mm
02:25 PM 57.6°F14.2°C 47.8°F8.8°C 70% 11.0 mph NE17.7 kmh NE 29.5 mph47.5 kmh 29.65 in1004.1 mb 0.00 in0.0 mm 0.00 in0.0 mm 0.10 in2.5 mm
02:30 PM 57.6°F14.2°C 47.8°F8.8°C 70% 5.4 mph NNE8.7 kmh NNE 25.9 mph41.7 kmh 29.65 in1004.1 mb 0.00 in0.0 mm 0.00 in0.0 mm 0.10 in2.5 mm
02:35 PM 57.6°F14.2°C 47.8°F8.8°C 70% 23.7 mph NNE38.1 kmh NNE 25.1 mph40.4 kmh 29.65 in1004.1 mb 0.00 in0.0 mm 0.00 in0.0 mm 0.10 in2.5 mm
02:40 PM 57.6°F14.2°C 47.2°F8.4°C 69% 14.1 mph NNE22.7 kmh NNE 28.9 mph46.5 kmh 29.65 in1004.1 mb 0.00 in0.0 mm 0.00 in0.0 mm 0.10 in2.5 mm
02:45 PM 57.6°F14.2°C 47.4°F8.6°C 69% 25.5 mph NNE41.0 kmh NNE 28.9 mph46.5 kmh 29.66 in1004.4 mb 0.00 in0.0 mm 0.00 in0.0 mm 0.10 in2.5 mm
02:50 PM 57.6°F14.2°C 47.4°F8.6°C 69% 14.5 mph NNE23.3 kmh NNE 28.6 mph46.0 kmh 29.65 in1004.1 mb 0.00 in0.0 mm 0.00 in0.0 mm 0.10 in2.5 mm
02:55 PM 57.6°F14.2°C 47.0°F8.3°C 68% 23.7 mph NNE38.1 kmh NNE 37.1 mph59.7 kmh 29.65 in1004.1 mb 0.00 in0.0 mm 0.00 in0.0 mm 0.10 in2.5 mm
03:00 PM 57.6°F14.2°C 47.4°F8.6°C 69% 24.4 mph NE39.3 kmh NE 37.1 mph59.7 kmh 29.65 in1004.1 mb 0.00 in0.0 mm 0.00 in0.0 mm 0.10 in2.5 mm
03:05 PM 57.4°F14.1°C 47.2°F8.4°C 69% 15.2 mph NE24.5 kmh NE 32.2 mph51.8 kmh 29.66 in1004.4 mb 0.00 in0.0 mm 0.00 in0.0 mm 0.10 in2.5 mm
03:10 PM 57.6°F14.2°C 47.0°F8.3°C 68% 21.7 mph NE34.9 kmh NE 26.4 mph42.5 kmh 29.66 in1004.4 mb 0.00 in0.0 mm 0.00 in0.0 mm 0.10 in2.5 mm
03:15 PM 57.6°F14.2°C 46.6°F8.1°C 67% 14.5 mph NNE23.3 kmh NNE 25.1 mph40.4 kmh 29.67 in1004.7 mb 0.00 in0.0 mm 0.00 in0.0 mm 0.10 in2.5 mm
03:20 PM 57.7°F14.3°C 46.4°F8.0°C 66% 16.1 mph NNE25.9 kmh NNE 30.6 mph49.2 kmh 29.67 in1004.7 mb 0.00 in0.0 mm 0.00 in0.0 mm 0.10 in2.5 mm
03:25 PM 57.7°F14.3°C 46.4°F8.0°C 66% 19.5 mph NNE31.4 kmh NNE 30.6 mph49.2 kmh 29.68 in1005.1 mb 0.00 in0.0 mm 0.00 in0.0 mm 0.10 in2.5 mm
03:30 PM 57.6°F14.2°C 46.6°F8.1°C 67% 21.9 mph NNE35.2 kmh NNE 35.6 mph57.3 kmh 29.68 in1005.1 mb 0.00 in0.0 mm 0.00 in0.0 mm 0.10 in2.5 mm
03:35 PM 57.4°F14.1°C 46.5°F8.1°C 67% 21.0 mph NNE33.8 kmh NNE 35.6 mph57.3 kmh 29.68 in1005.1 mb 0.00 in0.0 mm 0.00 in0.0 mm 0.10 in2.5 mm
03:40 PM 57.0°F13.9°C 46.1°F7.8°C 67% 15.9 mph NNE25.6 kmh NNE 27.7 mph44.6 kmh 29.68 in1005.1 mb 0.00 in0.0 mm 0.00 in0.0 mm 0.10 in2.5 mm
03:45 PM 57.0°F13.9°C 46.5°F8.1°C 68% 17.7 mph NNE28.5 kmh NNE 30.4 mph48.9 kmh 29.68 in1005.1 mb 0.00 in0.0 mm 0.00 in0.0 mm 0.10 in2.5 mm
03:50 PM 56.8°F13.8°C 46.7°F8.2°C 69% 20.6 mph NNE33.2 kmh NNE 34.7 mph55.8 kmh 29.67 in1004.7 mb 0.00 in0.0 mm 0.00 in0.0 mm 0.10 in2.5 mm
03:55 PM 56.5°F13.6°C 46.4°F8.0°C 69% 25.3 mph NNE40.7 kmh NNE 34.7 mph55.8 kmh 29.67 in1004.7 mb 0.00 in0.0 mm 0.00 in0.0 mm 0.10 in2.5 mm
04:00 PM 56.5°F13.6°C 46.4°F8.0°C 69% 25.3 mph NNE40.7 kmh NNE 30.2 mph48.6 kmh 29.68 in1005.1 mb 0.00 in0.0 mm 0.00 in0.0 mm 0.10 in2.5 mm
04:05 PM 56.5°F13.6°C 47.2°F8.4°C 71% 19.2 mph NNE30.9 kmh NNE 31.3 mph50.4 kmh 29.67 in1004.7 mb 0.00 in0.0 mm 0.00 in0.0 mm 0.10 in2.5 mm
04:10 PM 56.3°F13.5°C 47.0°F8.3°C 71% 15.4 mph NNE24.8 kmh NNE 31.3 mph50.4 kmh 29.67 in1004.7 mb 0.00 in0.0 mm 0.00 in0.0 mm 0.10 in2.5 mm
04:15 PM 56.1°F13.4°C 47.2°F8.4°C 72% 19.0 mph NE30.6 kmh NE 28.2 mph45.4 kmh 29.67 in1004.7 mb 0.00 in0.0 mm 0.00 in0.0 mm 0.10 in2.5 mm
04:20 PM 55.9°F13.3°C 47.0°F8.3°C 72% 19.5 mph NE31.4 kmh NE 28.9 mph46.5 kmh 29.66 in1004.4 mb 0.00 in0.0 mm 0.00 in0.0 mm 0.10 in2.5 mm
04:25 PM 55.9°F13.3°C 47.4°F8.6°C 73% 15.2 mph NE24.5 kmh NE 29.8 mph48.0 kmh 29.65 in1004.1 mb 0.00 in0.0 mm 0.00 in0.0 mm 0.10 in2.5 mm
04:30 PM 55.8°F13.2°C 47.2°F8.4°C 73% 24.2 mph NE38.9 kmh NE 40.3 mph64.9 kmh 29.66 in1004.4 mb 0.00 in0.0 mm 0.00 in0.0 mm 0.10 in2.5 mm
04:35 PM 55.6°F13.1°C 47.0°F8.3°C 73% 19.2 mph NE30.9 kmh NE 40.3 mph64.9 kmh 29.66 in1004.4 mb 0.00 in0.0 mm 0.00 in0.0 mm 0.10 in2.5 mm
04:40 PM 55.4°F13.0°C 46.9°F8.3°C 73% 14.5 mph NE23.3 kmh NE 30.2 mph48.6 kmh 29.65 in1004.1 mb 0.00 in0.0 mm 0.00 in0.0 mm 0.10 in2.5 mm
04:45 PM 55.2°F12.9°C 47.0°F8.3°C 74% 9.2 mph NE14.8 kmh NE 29.5 mph47.5 kmh 29.66 in1004.4 mb 0.00 in0.0 mm 0.00 in0.0 mm 0.10 in2.5 mm
04:50 PM 55.2°F12.9°C 47.0°F8.3°C 74% 24.2 mph NE38.9 kmh NE 29.5 mph47.5 kmh 29.67 in1004.7 mb 0.00 in0.0 mm 0.00 in0.0 mm 0.10 in2.5 mm
04:55 PM 55.2°F12.9°C 47.4°F8.6°C 75% 13.6 mph NE21.9 kmh NE 34.2 mph55.0 kmh 29.68 in1005.1 mb 0.00 in0.0 mm 0.00 in0.0 mm 0.10 in2.5 mm
05:00 PM 55.0°F12.8°C 47.2°F8.4°C 75% 17.7 mph NE28.5 kmh NE 34.2 mph55.0 kmh 29.69 in1005.4 mb 0.00 in0.0 mm 0.00 in0.0 mm 0.10 in2.5 mm
05:05 PM 54.9°F12.7°C 47.0°F8.3°C 75% 6.0 mph NE9.7 kmh NE 29.1 mph46.8 kmh 29.70 in1005.8 mb 0.00 in0.0 mm 0.00 in0.0 mm 0.10 in2.5 mm
05:10 PM 54.7°F12.6°C 47.2°F8.4°C 76% 14.5 mph NE23.3 kmh NE 22.8 mph36.7 kmh 29.70 in1005.8 mb 0.00 in0.0 mm 0.00 in0.0 mm 0.10 in2.5 mm
05:15 PM 54.7°F12.6°C 47.2°F8.4°C 76% 15.9 mph NE25.6 kmh NE 22.8 mph36.7 kmh 29.71 in1006.1 mb 0.00 in0.0 mm 0.00 in0.0 mm 0.10 in2.5 mm
05:20 PM 54.7°F12.6°C 46.9°F8.3°C 75% 8.7 mph ENE14.0 kmh ENE 20.4 mph32.8 kmh 29.72 in1006.4 mb 0.00 in0.0 mm 0.00 in0.0 mm 0.10 in2.5 mm
05:25 PM 54.7°F12.6°C 46.9°F8.3°C 75% 9.2 mph ENE14.8 kmh ENE 19.7 mph31.7 kmh 29.72 in1006.4 mb 0.00 in0.0 mm 0.00 in0.0 mm 0.10 in2.5 mm
05:30 PM 54.5°F12.5°C 47.1°F8.4°C 76% 18.3 mph NE29.5 kmh NE 19.7 mph31.7 kmh 29.72 in1006.4 mb 0.00 in0.0 mm 0.00 in0.0 mm 0.10 in2.5 mm
05:35 PM 54.5°F12.5°C 47.1°F8.4°C 76% 9.6 mph ENE15.4 kmh ENE 20.4 mph32.8 kmh 29.72 in1006.4 mb 0.00 in0.0 mm 0.00 in0.0 mm 0.10 in2.5 mm
05:40 PM 54.5°F12.5°C 47.1°F8.4°C 76% 2.9 mph E4.7 kmh E 20.4 mph32.8 kmh 29.72 in1006.4 mb 0.00 in0.0 mm 0.00 in0.0 mm 0.10 in2.5 mm
05:45 PM 54.3°F12.4°C 46.9°F8.3°C 76% 3.8 mph E6.1 kmh E 11.6 mph18.7 kmh 29.73 in1006.8 mb 0.00 in0.0 mm 0.00 in0.0 mm 0.10 in2.5 mm
05:50 PM 54.3°F12.4°C 46.9°F8.3°C 76% 4.3 mph SE6.9 kmh SE 12.8 mph20.6 kmh 29.73 in1006.8 mb 0.00 in0.0 mm 0.00 in0.0 mm 0.10 in2.5 mm
05:55 PM 54.3°F12.4°C 46.9°F8.3°C 76% 2.7 mph SE4.3 kmh SE 12.8 mph20.6 kmh 29.73 in1006.8 mb 0.00 in0.0 mm 0.00 in0.0 mm 0.10 in2.5 mm
06:00 PM 54.1°F12.3°C 47.1°F8.4°C 77% 5.1 mph SE8.2 kmh SE 12.1 mph19.5 kmh 29.74 in1007.1 mb 0.00 in0.0 mm 0.00 in0.0 mm 0.10 in2.5 mm
06:05 PM 54.1°F12.3°C 46.7°F8.2°C 76% 7.6 mph ESE12.2 kmh ESE 12.1 mph19.5 kmh 29.74 in1007.1 mb 0.00 in0.0 mm 0.00 in0.0 mm 0.10 in2.5 mm
06:10 PM 54.1°F12.3°C 47.1°F8.4°C 77% 2.0 mph SE3.2 kmh SE 8.5 mph13.7 kmh 29.74 in1007.1 mb 0.00 in0.0 mm 0.00 in0.0 mm 0.10 in2.5 mm
06:15 PM 54.0°F12.2°C 46.9°F8.3°C 77% 4.3 mph SE6.9 kmh SE 9.8 mph15.8 kmh 29.75 in1007.5 mb 0.00 in0.0 mm 0.00 in0.0 mm 0.10 in2.5 mm
06:20 PM 53.8°F12.1°C 47.1°F8.4°C 78% 2.9 mph SSE4.7 kmh SSE 13.4 mph21.6 kmh 29.75 in1007.5 mb 0.00 in0.0 mm 0.00 in0.0 mm 0.10 in2.5 mm
06:25 PM 53.8°F12.1°C 47.1°F8.4°C 78% 2.2 mph S3.5 kmh S 13.4 mph21.6 kmh 29.75 in1007.5 mb 0.00 in0.0 mm 0.00 in0.0 mm 0.10 in2.5 mm
06:30 PM 53.8°F12.1°C 47.1°F8.4°C 78% 3.1 mph S5.0 kmh S 8.9 mph14.3 kmh 29.75 in1007.5 mb 0.00 in0.0 mm 0.00 in0.0 mm 0.10 in2.5 mm
06:35 PM 53.6°F12.0°C 46.9°F8.3°C 78% 8.5 mph S13.7 kmh S 15.0 mph24.1 kmh 29.75 in1007.5 mb 0.00 in0.0 mm 0.00 in0.0 mm 0.10 in2.5 mm
06:40 PM 53.6°F12.0°C 46.9°F8.3°C 78% 6.9 mph SSE11.1 kmh SSE 15.0 mph24.1 kmh 29.76 in1007.8 mb 0.00 in0.0 mm 0.00 in0.0 mm 0.10 in2.5 mm
06:45 PM 53.4°F11.9°C 46.8°F8.2°C 78% Calm Calm 12.3 mph19.8 kmh 29.76 in1007.8 mb 0.00 in0.0 mm 0.00 in0.0 mm 0.10 in2.5 mm
06:50 PM 53.4°F11.9°C 46.8°F8.2°C 78% 0.9 mph S1.4 kmh S 6.7 mph10.8 kmh 29.76 in1007.8 mb 0.00 in0.0 mm 0.00 in0.0 mm 0.10 in2.5 mm
06:55 PM 53.2°F11.8°C 46.6°F8.1°C 78% 1.6 mph SSW2.6 kmh SSW 9.8 mph15.8 kmh 29.76 in1007.8 mb 0.00 in0.0 mm 0.00 in0.0 mm 0.10 in2.5 mm
07:00 PM 53.2°F11.8°C 46.9°F8.3°C 79% 2.9 mph S4.7 kmh S 10.3 mph16.6 kmh 29.77 in1008.1 mb 0.00 in0.0 mm 0.00 in0.0 mm 0.10 in2.5 mm
07:05 PM 53.2°F11.8°C 46.6°F8.1°C 78% 4.7 mph SE7.6 kmh SE 10.3 mph16.6 kmh 29.77 in1008.1 mb 0.00 in0.0 mm 0.00 in0.0 mm 0.10 in2.5 mm
07:10 PM 53.2°F11.8°C 46.9°F8.3°C 79% 0.9 mph ESE1.4 kmh ESE 9.8 mph15.8 kmh 29.77 in1008.1 mb 0.00 in0.0 mm 0.00 in0.0 mm 0.10 in2.5 mm
07:15 PM 53.2°F11.8°C 46.9°F8.3°C 79% 2.0 mph E3.2 kmh E 9.8 mph15.8 kmh 29.77 in1008.1 mb 0.00 in0.0 mm 0.00 in0.0 mm 0.10 in2.5 mm
07:20 PM 53.2°F11.8°C 46.9°F8.3°C 79% 3.8 mph E6.1 kmh E 8.7 mph14.0 kmh 29.77 in1008.1 mb 0.00 in0.0 mm 0.00 in0.0 mm 0.10 in2.5 mm
07:25 PM 53.1°F11.7°C 47.1°F8.4°C 80% 3.1 mph ESE5.0 kmh ESE 8.5 mph13.7 kmh 29.77 in1008.1 mb 0.00 in0.0 mm 0.00 in0.0 mm 0.10 in2.5 mm
07:30 PM 52.9°F11.6°C 46.9°F8.3°C 80% 4.7 mph ESE7.6 kmh ESE 7.8 mph12.6 kmh 29.77 in1008.1 mb 0.00 in0.0 mm 0.00 in0.0 mm 0.10 in2.5 mm
07:35 PM 52.9°F11.6°C 46.9°F8.3°C 80% 4.0 mph E6.4 kmh E 10.5 mph16.9 kmh 29.77 in1008.1 mb 0.00 in0.0 mm 0.00 in0.0 mm 0.10 in2.5 mm
07:40 PM 52.9°F11.6°C 46.9°F8.3°C 80% 2.5 mph E4.0 kmh E 10.5 mph16.9 kmh 29.77 in1008.1 mb 0.00 in0.0 mm 0.00 in0.0 mm 0.10 in2.5 mm
07:45 PM 52.9°F11.6°C 46.9°F8.3°C 80% 2.9 mph ESE4.7 kmh ESE 7.8 mph12.6 kmh 29.77 in1008.1 mb 0.00 in0.0 mm 0.00 in0.0 mm 0.10 in2.5 mm
07:50 PM 52.9°F11.6°C 46.9°F8.3°C 80% 3.6 mph E5.8 kmh E 10.7 mph17.2 kmh 29.77 in1008.1 mb 0.00 in0.0 mm 0.00 in0.0 mm 0.10 in2.5 mm
07:55 PM 52.9°F11.6°C 47.2°F8.4°C 81% 2.9 mph E4.7 kmh E 10.7 mph17.2 kmh 29.77 in1008.1 mb 0.00 in0.0 mm 0.00 in0.0 mm 0.10 in2.5 mm
08:00 PM 52.7°F11.5°C 47.1°F8.4°C 81% 3.1 mph SE5.0 kmh SE 6.3 mph10.1 kmh 29.78 in1008.5 mb 0.00 in0.0 mm 0.00 in0.0 mm 0.10 in2.5 mm
08:05 PM 52.5°F11.4°C 46.9°F8.3°C 81% 8.1 mph SE13.0 kmh SE 8.1 mph13.0 kmh 29.78 in1008.5 mb 0.00 in0.0 mm 0.00 in0.0 mm 0.10 in2.5 mm
08:10 PM 52.5°F11.4°C 46.9°F8.3°C 81% 2.0 mph S3.2 kmh S 8.7 mph14.0 kmh 29.78 in1008.5 mb 0.00 in0.0 mm 0.00 in0.0 mm 0.10 in2.5 mm
08:15 PM 52.5°F11.4°C 46.9°F8.3°C 81% 2.5 mph S4.0 kmh S 8.7 mph14.0 kmh 29.78 in1008.5 mb 0.00 in0.0 mm 0.00 in0.0 mm 0.10 in2.5 mm
08:20 PM 52.5°F11.4°C 46.9°F8.3°C 81% 3.6 mph SE5.8 kmh SE 8.3 mph13.4 kmh 29.78 in1008.5 mb 0.00 in0.0 mm 0.00 in0.0 mm 0.10 in2.5 mm
08:25 PM 52.5°F11.4°C 46.9°F8.3°C 81% 3.6 mph ESE5.8 kmh ESE 8.1 mph13.0 kmh 29.78 in1008.5 mb 0.00 in0.0 mm 0.00 in0.0 mm 0.10 in2.5 mm
08:30 PM 52.5°F11.4°C 46.9°F8.3°C 81% 1.3 mph ESE2.1 kmh ESE 8.1 mph13.0 kmh 29.78 in1008.5 mb 0.00 in0.0 mm 0.00 in0.0 mm 0.10 in2.5 mm
08:35 PM 52.5°F11.4°C 46.9°F8.3°C 81% 1.3 mph E2.1 kmh E 5.8 mph9.3 kmh 29.78 in1008.5 mb 0.00 in0.0 mm 0.00 in0.0 mm 0.10 in2.5 mm
08:40 PM 52.5°F11.4°C 46.9°F8.3°C 81% 2.9 mph E4.7 kmh E 5.6 mph9.0 kmh 29.79 in1008.8 mb 0.00 in0.0 mm 0.00 in0.0 mm 0.10 in2.5 mm
08:45 PM 52.5°F11.4°C 46.9°F8.3°C 81% 1.6 mph E2.6 kmh E 5.8 mph9.3 kmh 29.79 in1008.8 mb 0.00 in0.0 mm 0.00 in0.0 mm 0.10 in2.5 mm
08:50 PM 52.5°F11.4°C 46.9°F8.3°C 81% Calm Calm 8.9 mph14.3 kmh 29.80 in1009.1 mb 0.00 in0.0 mm 0.00 in0.0 mm 0.10 in2.5 mm
08:55 PM 52.7°F11.5°C 47.1°F8.4°C 81% 6.0 mph SSW9.7 kmh SSW 12.3 mph19.8 kmh 29.80 in1009.1 mb 0.00 in0.0 mm 0.00 in0.0 mm 0.10 in2.5 mm
09:00 PM 52.7°F11.5°C 47.1°F8.4°C 81% 6.0 mph SSW9.7 kmh SSW 15.7 mph25.3 kmh 29.80 in1009.1 mb 0.00 in0.0 mm 0.00 in0.0 mm 0.10 in2.5 mm
09:05 PM 52.5°F11.4°C 46.9°F8.3°C 81% 14.5 mph SSW23.3 kmh SSW 15.7 mph25.3 kmh 29.81 in1009.5 mb 0.00 in0.0 mm 0.00 in0.0 mm 0.10 in2.5 mm
09:10 PM 52.5°F11.4°C 46.9°F8.3°C 81% 11.9 mph SSW19.2 kmh SSW 14.5 mph23.3 kmh 29.81 in1009.5 mb 0.00 in0.0 mm 0.00 in0.0 mm 0.10 in2.5 mm
09:15 PM 52.3°F11.3°C 46.7°F8.2°C 81% 8.5 mph SSW13.7 kmh SSW 13.6 mph21.9 kmh 29.81 in1009.5 mb 0.00 in0.0 mm 0.00 in0.0 mm 0.10 in2.5 mm
09:20 PM 52.3°F11.3°C 47.0°F8.3°C 82% 8.9 mph SSW14.3 kmh SSW 17.2 mph27.7 kmh 29.81 in1009.5 mb 0.00 in0.0 mm 0.00 in0.0 mm 0.10 in2.5 mm
09:25 PM 52.3°F11.3°C 47.0°F8.3°C 82% 17.0 mph SSW27.4 kmh SSW 17.4 mph28.0 kmh 29.81 in1009.5 mb 0.00 in0.0 mm 0.00 in0.0 mm 0.10 in2.5 mm
09:30 PM 52.5°F11.4°C 47.2°F8.4°C 82% 5.6 mph S9.0 kmh S 18.3 mph29.5 kmh 29.81 in1009.5 mb 0.00 in0.0 mm 0.00 in0.0 mm 0.10 in2.5 mm
09:35 PM 52.5°F11.4°C 47.2°F8.4°C 82% 12.1 mph S19.5 kmh S 18.3 mph29.5 kmh 29.81 in1009.5 mb 0.00 in0.0 mm 0.00 in0.0 mm 0.10 in2.5 mm
09:40 PM 52.5°F11.4°C 47.5°F8.6°C 83% 11.6 mph S18.7 kmh S 18.8 mph30.3 kmh 29.81 in1009.5 mb 0.00 in0.0 mm 0.00 in0.0 mm 0.10 in2.5 mm
09:45 PM 52.5°F11.4°C 47.5°F8.6°C 83% 11.2 mph S18.0 kmh S 18.8 mph30.3 kmh 29.81 in1009.5 mb 0.00 in0.0 mm 0.00 in0.0 mm 0.10 in2.5 mm
09:50 PM 52.5°F11.4°C 47.5°F8.6°C 83% 11.9 mph S19.2 kmh S 19.0 mph30.6 kmh 29.82 in1009.8 mb 0.00 in0.0 mm 0.00 in0.0 mm 0.10 in2.5 mm
09:55 PM 52.5°F11.4°C 47.5°F8.6°C 83% 17.2 mph S27.7 kmh S 19.0 mph30.6 kmh 29.81 in1009.5 mb 0.00 in0.0 mm 0.00 in0.0 mm 0.10 in2.5 mm
10:00 PM 52.5°F11.4°C 47.5°F8.6°C 83% 14.1 mph S22.7 kmh S 18.3 mph29.5 kmh 29.82 in1009.8 mb 0.00 in0.0 mm 0.00 in0.0 mm 0.10 in2.5 mm
10:05 PM 52.5°F11.4°C 47.5°F8.6°C 83% 14.3 mph S23.0 kmh S 18.3 mph29.5 kmh 29.82 in1009.8 mb 0.00 in0.0 mm 0.00 in0.0 mm 0.10 in2.5 mm
10:10 PM 52.7°F11.5°C 48.0°F8.9°C 84% 15.9 mph S25.6 kmh S 18.6 mph29.9 kmh 29.82 in1009.8 mb 0.00 in0.0 mm 0.00 in0.0 mm 0.10 in2.5 mm
10:15 PM 52.5°F11.4°C 47.8°F8.8°C 84% 9.2 mph S14.8 kmh S 18.8 mph30.3 kmh 29.82 in1009.8 mb 0.00 in0.0 mm 0.00 in0.0 mm 0.10 in2.5 mm
10:20 PM 52.5°F11.4°C 47.8°F8.8°C 84% 11.9 mph SSW19.2 kmh SSW 18.8 mph30.3 kmh 29.82 in1009.8 mb 0.00 in0.0 mm 0.00 in0.0 mm 0.10 in2.5 mm
10:25 PM 52.5°F11.4°C 47.5°F8.6°C 83% 9.6 mph SSW15.4 kmh SSW 17.9 mph28.8 kmh 29.82 in1009.8 mb 0.00 in0.0 mm 0.00 in0.0 mm 0.10 in2.5 mm
10:30 PM 52.5°F11.4°C 47.8°F8.8°C 84% 3.4 mph S5.5 kmh S 14.3 mph23.0 kmh 29.82 in1009.8 mb 0.00 in0.0 mm 0.00 in0.0 mm 0.10 in2.5 mm
10:35 PM 52.5°F11.4°C 47.8°F8.8°C 84% 12.5 mph S20.1 kmh S 12.8 mph20.6 kmh 29.82 in1009.8 mb 0.00 in0.0 mm 0.00 in0.0 mm 0.10 in2.5 mm
10:40 PM 52.5°F11.4°C 47.8°F8.8°C 84% 4.0 mph S6.4 kmh S 12.8 mph20.6 kmh 29.82 in1009.8 mb 0.00 in0.0 mm 0.00 in0.0 mm 0.10 in2.5 mm
10:45 PM 52.5°F11.4°C 47.8°F8.8°C 84% 3.8 mph S6.1 kmh S 14.5 mph23.3 kmh 29.82 in1009.8 mb 0.00 in0.0 mm 0.00 in0.0 mm 0.10 in2.5 mm
10:50 PM 52.3°F11.3°C 47.9°F8.8°C 85% 5.1 mph S8.2 kmh S 14.5 mph23.3 kmh 29.82 in1009.8 mb 0.00 in0.0 mm 0.00 in0.0 mm 0.10 in2.5 mm
10:55 PM 52.3°F11.3°C 47.9°F8.8°C 85% 2.5 mph SE4.0 kmh SE 11.9 mph19.2 kmh 29.82 in1009.8 mb 0.00 in0.0 mm 0.00 in0.0 mm 0.10 in2.5 mm
11:00 PM 52.3°F11.3°C 47.9°F8.8°C 85% Calm Calm 11.9 mph19.2 kmh 29.82 in1009.8 mb 0.00 in0.0 mm 0.00 in0.0 mm 0.10 in2.5 mm
11:05 PM 52.3°F11.3°C 47.9°F8.8°C 85% 4.7 mph S7.6 kmh S 11.9 mph19.2 kmh 29.82 in1009.8 mb 0.00 in0.0 mm 0.00 in0.0 mm 0.10 in2.5 mm
11:10 PM 52.3°F11.3°C 47.9°F8.8°C 85% 7.2 mph S11.6 kmh S 11.9 mph19.2 kmh 29.82 in1009.8 mb 0.00 in0.0 mm 0.00 in0.0 mm 0.10 in2.5 mm
11:15 PM 52.3°F11.3°C 47.9°F8.8°C 85% 13.0 mph S20.9 kmh S 14.3 mph23.0 kmh 29.82 in1009.8 mb 0.00 in0.0 mm 0.00 in0.0 mm 0.10 in2.5 mm
11:20 PM 52.5°F11.4°C 48.1°F8.9°C 85% 7.6 mph S12.2 kmh S 17.9 mph28.8 kmh 29.82 in1009.8 mb 0.00 in0.0 mm 0.00 in0.0 mm 0.10 in2.5 mm
11:25 PM 52.5°F11.4°C 48.1°F8.9°C 85% 13.0 mph S20.9 kmh S 18.1 mph29.1 kmh 29.83 in1010.2 mb 0.00 in0.0 mm 0.00 in0.0 mm 0.10 in2.5 mm
11:30 PM 52.5°F11.4°C 48.1°F8.9°C 85% 5.4 mph S8.7 kmh S 18.1 mph29.1 kmh 29.83 in1010.2 mb 0.00 in0.0 mm 0.00 in0.0 mm 0.10 in2.5 mm
11:35 PM 52.5°F11.4°C 48.1°F8.9°C 85% 8.3 mph S13.4 kmh S 17.9 mph28.8 kmh 29.82 in1009.8 mb 0.00 in0.0 mm 0.00 in0.0 mm 0.10 in2.5 mm
11:40 PM 52.5°F11.4°C 48.1°F8.9°C 85% 10.1 mph S16.3 kmh S 17.4 mph28.0 kmh 29.82 in1009.8 mb 0.00 in0.0 mm 0.00 in0.0 mm 0.10 in2.5 mm
11:45 PM 52.7°F11.5°C 48.3°F9.1°C 85% 17.9 mph SSW28.8 kmh SSW 23.7 mph38.1 kmh 29.82 in1009.8 mb 0.00 in0.0 mm 0.00 in0.0 mm 0.10 in2.5 mm
11:50 PM 52.7°F11.5°C 48.3°F9.1°C 85% 21.3 mph SSW34.3 kmh SSW 23.7 mph38.1 kmh 29.82 in1009.8 mb 0.00 in0.0 mm 0.00 in0.0 mm 0.10 in2.5 mm
11:55 PM 52.7°F11.5°C 48.3°F9.1°C 85% 5.4 mph SSW8.7 kmh SSW 22.1 mph35.6 kmh 29.82 in1009.8 mb 0.00 in0.0 mm 0.00 in0.0 mm 0.10 in2.5 mm